Ocean City, NJ (08226)

1:55 AM EDT on March 26, 2017 (GMT -0400)
East 9th Street | | Change Station

Elev 6 ft 39.28 °N, 74.57 °W | Updated 3 minutes ago

Overcast
Overcast
45.3 °F
Feels Like 45 °F
N
1.2
Wind Variable Wind from East
Gusts 3.7 mph

Today
High -- | Low -- °F
--% Chance of Precip.
Yesterday
High -- | Low -- °F
Precip. -- in
Pressure 30.32 in
Visibility 10.0 miles
Clouds Mostly Cloudy 3400 ft
Overcast 7000 ft
Windchill 45 °F
Dew Point 39 °F
Humidity 78%
Rainfall Not available.
Snow Depth Not available.
6:51 AM 7:16 PM
Waning Crescent, 5% visible
METAR KACY 260454Z 05012G20KT 10SM BKN034 OVC070 07/03 A3032 RMK AO2 SLP265 T00720033 402720072
Pressure 30.32 in
Visibility 10.0 miles
Clouds Mostly Cloudy 3400 ft
Overcast 7000 ft
Windchill 45 °F
Dew Point 39 °F
Humidity 78%
Rainfall Not available.
Snow Depth Not available.
6:51 AM 7:16 PM
Waning Crescent, 5% visible
METAR KACY 260454Z 05012G20KT 10SM BKN034 OVC070 07/03 A3032 RMK AO2 SLP265 T00720033 402720072

Get Severe Weather Alerts

Thanks for signing up!

Be on the lookout for a verification email in your inbox.

You'll start receiving the daily forecast at 8 AM.

×

10-Day Weather Forecast

Almanac

Astronomy

Mar. 26, 2017 Rise Set
Actual Time
Civil Twilight
Nautical Twilight
Astronomical Twilight
Moon
Length of Visible Light
Length of Day
Tomorrow will be .
, % of the Moon is Illuminated

Today's Extremes

State Highs State Lows

Community

WunderPhotos

Upload Photos

1,962,540 photos uploaded!

WunderBlog® & News

Nearby

Air Quality

  Air Quality AQ Index Pollutant
Not available.

Snow Depth

Station Depth Elevation

Earthquake Activity

City Distance Mag. Time & Date
Minimum magnitude displayed is 2.5.

Earthquake Activity

City Distance Mag. Time & Date
Minimum magnitude displayed is 2.5.

Coastal Water Temperatures

Place Temperature

Stations

Nearby Weather Stations

Station Location Temp. Windchill Dew Point Humidity Wind Precip. Elev Updated Type
                   

Watches & Warnings

There are currently no watches in effect.